Time;durP1;ratioP1;P1;durP2;ratioP2;P2;SDS_P1;SDS_P2;PMS_P1;PMS_P2;Temp;Humidity;BMP_temperature;BMP_pressure;BME280_temperature;BME280_humidity;BME280_pressure;Samples;Min_cycle;Max_cycle;Signal;HPM_P1;HPM_P2
2022/04/01 00:01:13;;;;;;;21.90;3.70;;;18.10;65.20;;;;;;5008526;28;20451;-74
2022/04/01 00:03:42;;;;;;;13.87;4.57;;;18.10;65.20;;;;;;5005135;28;20210;-73
2022/04/01 00:06:10;;;;;;;26.57;4.57;;;18.20;65.10;;;;;;5006648;28;20205;-74
2022/04/01 00:08:39;;;;;;;27.47;4.97;;;18.20;65.10;;;;;;5006807;28;20945;-75
2022/04/01 00:11:07;;;;;;;23.27;4.03;;;18.20;65.10;;;;;;5005917;28;20204;-73
2022/04/01 00:13:35;;;;;;;22.53;4.63;;;18.20;64.90;;;;;;5006950;28;20211;-74
2022/04/01 00:16:06;;;;;;;17.67;3.97;;;18.20;65.00;;;;;;5002677;28;20196;-74
2022/04/01 00:18:34;;;;;;;16.53;4.07;;;18.20;65.00;;;;;;5001517;28;20215;-76
2022/04/01 00:21:02;;;;;;;17.90;3.67;;;18.20;65.00;;;;;;5003847;28;20231;-74
2022/04/01 00:23:31;;;;;;;12.10;3.60;;;18.20;64.80;;;;;;5005899;28;20203;-74
2022/04/01 00:25:59;;;;;;;21.33;3.40;;;18.30;64.90;;;;;;5005866;28;20883;-74
2022/04/01 00:28:28;;;;;;;17.57;4.07;;;18.20;64.90;;;;;;5006497;28;20209;-75
2022/04/01 00:30:57;;;;;;;27.17;4.43;;;18.20;64.80;;;;;;5006844;28;20200;-74
2022/04/01 00:33:28;;;;;;;17.03;4.10;;;18.30;64.70;;;;;;5005261;28;20203;-74
2022/04/01 00:35:57;;;;;;;20.30;3.80;;;18.30;64.70;;;;;;5005207;28;20202;-74
2022/04/01 00:38:26;;;;;;;11.23;3.07;;;18.30;64.70;;;;;;5005913;28;20792;-74
2022/04/01 00:40:54;;;;;;;21.70;4.17;;;18.30;64.80;;;;;;5004189;28;20219;-73
2022/04/01 00:43:27;;;;;;;22.73;4.67;;;18.30;64.90;;;;;;5004294;28;20200;-72
2022/04/01 00:45:57;;;;;;;19.83;4.37;;;18.20;64.90;;;;;;5005705;28;20193;-74
2022/04/01 00:48:25;;;;;;;18.93;4.37;;;18.20;64.90;;;;;;5002971;28;20645;-73
2022/04/01 00:50:55;;;;;;;24.67;4.17;;;18.20;65.20;;;;;;5004349;28;20204;-74
2022/04/01 00:53:24;;;;;;;15.03;4.10;;;18.20;65.10;;;;;;5003534;28;20205;-73
2022/04/01 00:55:53;;;;;;;16.47;3.77;;;18.20;65.20;;;;;;5005843;28;20564;-75
2022/04/01 00:58:23;;;;;;;23.60;4.33;;;18.20;65.00;;;;;;5004205;28;20215;-74
2022/04/01 01:00:53;;;;;;;17.13;3.87;;;18.20;65.00;;;;;;5005619;28;20585;-75
2022/04/01 01:03:22;;;;;;;21.37;3.50;;;18.20;65.10;;;;;;5007827;28;20189;-74
2022/04/01 01:05:51;;;;;;;21.27;3.73;;;18.20;65.10;;;;;;5001699;28;20257;-74
2022/04/01 01:08:22;;;;;;;18.83;3.73;;;18.20;65.30;;;;;;5005710;28;20234;-73
2022/04/01 01:10:50;;;;;;;29.90;4.43;;;18.20;64.90;;;;;;5005080;28;20203;-74
2022/04/01 01:13:19;;;;;;;20.03;4.40;;;18.20;65.30;;;;;;5006313;28;20216;-74
2022/04/01 01:15:47;;;;;;;17.87;4.77;;;18.20;65.30;;;;;;5004845;28;20200;-73
2022/04/01 01:18:17;;;;;;;27.67;4.27;;;18.20;65.60;;;;;;5002265;28;20847;-75
2022/04/01 01:20:45;;;;;;;12.00;3.17;;;18.20;65.70;;;;;;5001679;28;21399;-75
2022/04/01 01:23:13;;;;;;;11.00;3.67;;;18.20;65.80;;;;;;5005417;28;20239;-74
2022/04/01 01:25:45;;;;;;;19.30;3.97;;;18.20;66.10;;;;;;5005954;28;20196;-75
2022/04/01 01:28:14;;;;;;;17.17;4.13;;;18.20;66.10;;;;;;5002842;28;20203;-73
2022/04/01 01:30:42;;;;;;;16.97;4.37;;;18.20;66.10;;;;;;5004779;28;20232;-74
2022/04/01 01:33:11;;;;;;;15.97;4.10;;;18.20;66.20;;;;;;5004152;28;20193;-74
2022/04/01 01:35:39;;;;;;;21.67;4.27;;;18.20;66.30;;;;;;5005451;28;20877;-73
2022/04/01 01:38:09;;;;;;;17.93;3.37;;;18.20;66.50;;;;;;5006127;28;20195;-74
2022/04/01 01:40:38;;;;;;;13.37;3.77;;;18.20;66.40;;;;;;5005911;28;20249;-74
2022/04/01 01:43:08;;;;;;;16.70;3.43;;;18.20;66.40;;;;;;5005562;28;20870;-74
2022/04/01 01:45:36;;;;;;;21.07;5.07;;;18.20;66.60;;;;;;5003053;28;20642;-72
2022/04/01 01:48:05;;;;;;;15.37;3.27;;;18.20;66.50;;;;;;5003490;28;20199;-74
2022/04/01 01:56:05;;;;;;;17.40;3.23;;;18.20;66.60;;;;;;5005409;28;20196;-75
2022/04/01 01:58:35;;;;;;;11.40;3.23;;;18.20;66.80;;;;;;5005387;28;20199;-75
2022/04/01 02:01:04;;;;;;;17.40;4.00;;;18.30;67.10;;;;;;5005236;28;20191;-74
2022/04/01 02:03:33;;;;;;;23.30;3.53;;;18.30;67.10;;;;;;5006066;28;20328;-74
2022/04/01 02:06:02;;;;;;;17.23;4.40;;;18.30;67.10;;;;;;5006398;28;20230;-73
2022/04/01 02:08:31;;;;;;;14.73;4.40;;;18.30;67.20;;;;;;5004595;28;20728;-75
2022/04/01 02:10:59;;;;;;;12.27;3.63;;;18.30;67.10;;;;;;5004967;28;20204;-75
2022/04/01 02:13:29;;;;;;;20.57;3.17;;;18.30;67.70;;;;;;5004731;28;20196;-75
2022/04/01 02:15:59;;;;;;;16.07;3.40;;;18.30;66.80;;;;;;5005493;28;21049;-74
2022/04/01 02:18:29;;;;;;;14.30;3.40;;;18.30;66.90;;;;;;5003285;28;20679;-74
2022/04/01 02:20:57;;;;;;;14.77;3.40;;;18.30;66.80;;;;;;5003350;28;20592;-75
2022/04/01 02:23:26;;;;;;;25.07;4.20;;;18.30;66.80;;;;;;5001692;28;20216;-75
2022/04/01 02:25:54;;;;;;;19.77;3.30;;;18.30;66.80;;;;;;5004605;28;20226;-74
2022/04/01 02:28:22;;;;;;;21.07;3.93;;;18.30;66.80;;;;;;5009527;28;20204;-75
2022/04/01 02:30:51;;;;;;;28.07;4.07;;;18.30;66.80;;;;;;5009178;28;20196;-74
2022/04/01 02:33:21;;;;;;;14.43;3.17;;;18.30;66.60;;;;;;5007713;28;20196;-74
2022/04/01 02:35:50;;;;;;;18.17;3.83;;;18.30;66.50;;;;;;5007525;28;20200;-75
2022/04/01 02:38:18;;;;;;;19.70;4.30;;;18.20;66.50;;;;;;5010057;28;20328;-75
2022/04/01 02:40:46;;;;;;;17.67;3.53;;;18.20;66.50;;;;;;5009118;28;20573;-76
2022/04/01 02:43:15;;;;;;;25.73;3.67;;;18.20;66.50;;;;;;5009681;28;20911;-75
2022/04/01 02:45:43;;;;;;;18.33;3.93;;;18.20;66.50;;;;;;5008326;28;20214;-75
2022/04/01 02:48:12;;;;;;;17.50;4.00;;;18.20;66.30;;;;;;5009503;28;20250;-74
2022/04/01 02:50:42;;;;;;;17.13;4.13;;;18.20;66.30;;;;;;5006171;28;20266;-75
2022/04/01 02:53:11;;;;;;;14.23;3.90;;;18.10;66.30;;;;;;5003811;28;20208;-74
2022/04/01 02:55:40;;;;;;;14.90;3.37;;;18.10;66.30;;;;;;5009078;28;20202;-75
2022/04/01 02:58:09;;;;;;;17.33;3.33;;;18.10;66.40;;;;;;5008902;28;20195;-73
2022/04/01 03:00:39;;;;;;;19.57;3.10;;;18.10;66.20;;;;;;5009127;28;20212;-75
2022/04/01 03:03:10;;;;;;;16.40;3.27;;;18.10;66.30;;;;;;5010281;28;20678;-75
2022/04/01 03:05:40;;;;;;;22.43;3.97;;;18.10;66.30;;;;;;5006953;28;20200;-76
2022/04/01 03:08:10;;;;;;;24.03;4.17;;;18.10;66.30;;;;;;5005792;28;20878;-75
2022/04/01 03:10:41;;;;;;;21.53;3.80;;;18.00;66.40;;;;;;5005540;28;20200;-74
2022/04/01 03:13:10;;;;;;;19.17;4.10;;;18.00;66.60;;;;;;5008860;28;20204;-76
2022/04/01 03:15:38;;;;;;;17.43;3.83;;;18.00;66.50;;;;;;5008144;28;20215;-75
2022/04/01 03:18:07;;;;;;;13.17;3.20;;;18.00;66.60;;;;;;5006949;28;20196;-74
2022/04/01 03:20:37;;;;;;;20.70;4.43;;;17.90;66.60;;;;;;5001592;28;20452;-75
2022/04/01 03:23:07;;;;;;;19.30;3.30;;;17.90;67.00;;;;;;5004071;28;20217;-75
2022/04/01 03:25:36;;;;;;;21.40;3.87;;;17.90;66.90;;;;;;5006634;28;20201;-75
2022/04/01 03:28:05;;;;;;;17.70;3.60;;;17.90;67.00;;;;;;5008699;28;20249;-75
2022/04/01 03:30:34;;;;;;;17.80;3.90;;;17.80;67.00;;;;;;5007150;28;20290;-74
2022/04/01 03:33:02;;;;;;;13.23;3.90;;;17.80;67.20;;;;;;5007413;28;20196;-73
2022/04/01 03:35:32;;;;;;;16.07;3.87;;;17.80;67.20;;;;;;5007710;28;20599;-75
2022/04/01 03:38:01;;;;;;;23.73;4.20;;;17.80;67.20;;;;;;5004957;28;20199;-75
2022/04/01 03:40:30;;;;;;;26.50;4.13;;;17.80;67.50;;;;;;5008598;28;20209;-75
2022/04/01 03:42:59;;;;;;;18.23;3.67;;;17.70;67.30;;;;;;5007946;28;20866;-74
2022/04/01 03:45:29;;;;;;;18.30;4.10;;;17.70;67.40;;;;;;5005206;28;20553;-75
2022/04/01 03:48:05;;;;;;;20.07;5.10;;;17.70;67.30;;;;;;5005358;28;20280;-75
2022/04/01 03:50:35;;;;;;;31.17;5.47;;;17.80;67.30;;;;;;5006532;28;20202;-74
2022/04/01 03:53:05;;;;;;;20.37;3.30;;;17.70;67.50;;;;;;5004743;28;20193;-76
2022/04/01 03:55:36;;;;;;;20.97;4.50;;;17.70;68.20;;;;;;5007176;28;20287;-74
2022/04/01 03:58:08;;;;;;;16.37;3.80;;;17.70;67.50;;;;;;5008664;28;20195;-75
2022/04/01 04:00:38;;;;;;;22.10;4.03;;;17.70;67.60;;;;;;5006561;28;20189;-75
2022/04/01 04:03:08;;;;;;;19.30;3.83;;;17.70;67.50;;;;;;5007189;28;20290;-75
2022/04/01 04:05:38;;;;;;;13.53;3.50;;;17.70;67.40;;;;;;5008013;28;20202;-74
2022/04/01 04:08:10;;;;;;;14.73;3.87;;;17.60;67.50;;;;;;5008639;28;20815;-76
2022/04/01 04:10:41;;;;;;;20.43;3.77;;;17.60;67.60;;;;;;5007536;28;20282;-76
2022/04/01 04:13:13;;;;;;;14.37;3.97;;;17.70;67.50;;;;;;5006839;28;20195;-75
2022/04/01 04:15:48;;;;;;;17.60;3.83;;;17.60;67.30;;;;;;5006289;28;20196;-75
2022/04/01 04:18:17;;;;;;;21.43;5.00;;;17.60;67.20;;;;;;5007535;28;20197;-76
2022/04/01 04:21:01;;;;;;;17.90;3.80;;;17.60;67.30;;;;;;5006514;28;20614;-75
2022/04/01 04:23:36;;;;;;;16.93;3.90;;;17.70;67.20;;;;;;5005941;28;22020;-76
2022/04/01 04:26:11;;;;;;;19.50;4.33;;;17.60;67.30;;;;;;5006932;28;20238;-76
2022/04/01 04:28:46;;;;;;;23.83;4.87;;;17.60;67.20;;;;;;5006899;28;20718;-75
2022/04/01 04:31:15;;;;;;;16.80;3.90;;;17.60;67.30;;;;;;5006968;28;20203;-76
2022/04/01 04:33:45;;;;;;;22.40;4.70;;;17.60;67.20;;;;;;5007340;28;20839;-75
2022/04/01 04:36:18;;;;;;;20.47;4.47;;;17.60;67.10;;;;;;5007673;28;20196;-75
2022/04/01 04:38:47;;;;;;;18.30;5.00;;;17.70;67.20;;;;;;5007327;28;20274;-75
2022/04/01 04:41:19;;;;;;;26.37;5.00;;;17.70;67.20;;;;;;5007400;28;20199;-75
2022/04/01 04:43:51;;;;;;;15.07;3.47;;;17.70;67.20;;;;;;5005158;28;20206;-75
2022/04/01 04:46:20;;;;;;;21.60;4.97;;;17.70;67.20;;;;;;5005780;28;20200;-75
2022/04/01 04:48:50;;;;;;;17.53;4.03;;;17.70;67.00;;;;;;5004868;28;20223;-75
2022/04/01 04:51:27;;;;;;;18.60;4.23;;;17.70;66.90;;;;;;5006086;28;20207;-76
2022/04/01 04:54:01;;;;;;;17.23;4.43;;;17.80;66.90;;;;;;5006057;28;20628;-76
2022/04/01 04:56:32;;;;;;;20.57;4.70;;;17.80;66.90;;;;;;5007185;28;20222;-75
2022/04/01 04:59:07;;;;;;;25.07;4.67;;;17.80;66.70;;;;;;5005926;28;20199;-75
2022/04/01 05:01:40;;;;;;;19.10;4.77;;;17.80;66.90;;;;;;5007380;28;20202;-76
2022/04/01 05:04:25;;;;;;;15.97;4.50;;;17.80;66.80;;;;;;5006063;28;20570;-76
2022/04/01 05:07:03;;;;;;;20.57;4.40;;;17.90;66.80;;;;;;5006152;28;20192;-76
2022/04/01 05:09:40;;;;;;;17.67;4.40;;;17.90;66.70;;;;;;5006825;28;20199;-76
2022/04/01 05:12:17;;;;;;;22.80;4.83;;;18.00;66.60;;;;;;5007357;28;20287;-76
2022/04/01 05:15:05;;;;;;;20.50;4.47;;;18.10;66.50;;;;;;5006522;28;20206;-77
2022/04/01 05:17:36;;;;;;;20.97;5.20;;;18.10;66.50;;;;;;5007067;28;20206;-78
2022/04/01 05:20:15;;;;;;;24.47;4.87;;;18.10;66.40;;;;;;5005100;28;22601;-75
2022/04/01 05:23:07;;;;;;;24.70;4.60;;;18.10;66.30;;;;;;4983342;28;20338;-75
2022/04/01 05:25:42;;;;;;;23.57;5.03;;;18.20;66.30;;;;;;4987429;28;20797;-75
2022/04/01 05:28:20;;;;;;;23.70;4.43;;;18.20;66.20;;;;;;4987125;28;20211;-76
2022/04/01 05:31:01;;;;;;;17.77;4.30;;;18.20;66.20;;;;;;4987361;28;20196;-76
2022/04/01 05:33:39;;;;;;;21.40;4.20;;;18.30;66.20;;;;;;4987640;28;20725;-76
2022/04/01 05:36:10;;;;;;;28.47;6.20;;;18.30;66.10;;;;;;4987161;28;20200;-76
2022/04/01 05:38:40;;;;;;;20.87;4.07;;;18.30;66.10;;;;;;4985767;28;20196;-75
2022/04/01 05:41:10;;;;;;;22.70;5.03;;;18.40;66.00;;;;;;4988177;28;20196;-75
2022/04/01 05:43:40;;;;;;;19.10;4.23;;;18.40;66.00;;;;;;4985650;28;20679;-76
2022/04/01 05:46:11;;;;;;;18.03;4.10;;;18.40;65.90;;;;;;4985947;28;20197;-76
2022/04/01 05:48:41;;;;;;;21.10;4.30;;;18.50;65.90;;;;;;4987501;28;20201;-75
2022/04/01 05:51:14;;;;;;;24.90;4.57;;;18.50;65.90;;;;;;4986603;28;20755;-75
2022/04/01 05:53:45;;;;;;;23.27;4.73;;;18.50;65.90;;;;;;4988334;28;20575;-74
2022/04/01 05:56:15;;;;;;;24.83;5.80;;;18.50;65.90;;;;;;4985837;28;20226;-74
2022/04/01 05:58:46;;;;;;;27.10;5.53;;;18.50;65.80;;;;;;4986634;28;20712;-74
2022/04/01 06:01:26;;;;;;;16.67;4.13;;;18.50;65.70;;;;;;4988645;28;20795;-74
2022/04/01 06:04:34;;;;;;;15.63;4.77;;;18.50;65.60;;;;;;4991097;28;20287;-73
2022/04/01 06:07:10;;;;;;;30.50;4.73;;;18.60;65.60;;;;;;4990344;28;20203;-72
2022/04/01 06:09:48;;;;;;;26.47;5.27;;;18.70;65.60;;;;;;4985661;28;20542;-73
2022/04/01 06:12:29;;;;;;;27.87;5.93;;;18.70;65.60;;;;;;4987134;28;20448;-73
2022/04/01 06:15:06;;;;;;;26.83;5.10;;;18.70;65.30;;;;;;4987686;28;20200;-73
2022/04/01 06:17:43;;;;;;;25.40;5.17;;;18.70;65.30;;;;;;4987265;28;20193;-73
2022/04/01 06:20:16;;;;;;;25.30;5.60;;;18.80;65.20;;;;;;4987835;28;20208;-74
2022/04/01 06:22:59;;;;;;;27.30;5.23;;;18.90;65.40;;;;;;4988008;28;20200;-72
2022/04/01 06:25:34;;;;;;;29.17;5.10;;;18.90;64.80;;;;;;4988094;28;20200;-72
2022/04/01 06:28:20;;;;;;;26.50;5.70;;;19.00;64.70;;;;;;4987381;28;20196;-72
2022/04/01 06:30:49;;;;;;;35.67;5.50;;;19.10;64.50;;;;;;4986826;28;20189;-74
2022/04/01 06:33:27;;;;;;;32.47;5.30;;;19.10;64.50;;;;;;4986472;28;20201;-74
2022/04/01 06:35:59;;;;;;;23.67;5.47;;;19.20;63.90;;;;;;4988299;28;20192;-72
2022/04/01 06:38:38;;;;;;;38.23;6.53;;;19.30;63.40;;;;;;4989563;28;20197;-72
2022/04/01 06:41:08;;;;;;;40.93;6.97;;;19.30;63.30;;;;;;4985719;28;21213;-76
2022/04/01 06:43:37;;;;;;;29.77;7.07;;;19.40;64.20;;;;;;4987039;28;20545;-72
2022/04/01 06:46:06;;;;;;;41.03;8.40;;;19.50;63.00;;;;;;4986547;28;20572;-73
2022/04/01 06:48:38;;;;;;;33.33;6.33;;;19.50;62.50;;;;;;4987784;28;20854;-72
2022/04/01 06:51:08;;;;;;;38.47;7.00;;;19.60;62.60;;;;;;4988612;28;20200;-73
2022/04/01 06:53:37;;;;;;;33.57;7.17;;;19.70;63.00;;;;;;4988292;28;20193;-73
2022/04/01 06:56:06;;;;;;;40.50;6.83;;;19.70;62.20;;;;;;4986537;28;20197;-71
2022/04/01 06:58:34;;;;;;;34.63;7.00;;;19.80;62.10;;;;;;4989313;28;20197;-73
2022/04/01 07:01:03;;;;;;;34.05;6.53;;;19.90;61.90;;;;;;4987717;28;20449;-72
2022/04/01 07:03:37;;;;;;;43.53;5.93;;;20.00;61.60;;;;;;4987035;28;20197;-71
2022/04/01 07:06:06;;;;;;;41.37;7.07;;;20.10;61.40;;;;;;4987853;28;20331;-70
2022/04/01 07:08:35;;;;;;;39.20;7.03;;;20.20;62.40;;;;;;4987945;28;20714;-72
2022/04/01 07:11:03;;;;;;;36.50;7.50;;;20.20;60.60;;;;;;4986891;28;20235;-72
2022/04/01 07:13:33;;;;;;;35.80;7.17;;;20.30;60.30;;;;;;4987449;28;20208;-73
2022/04/01 07:16:01;;;;;;;38.70;6.83;;;20.30;60.20;;;;;;4987308;28;20741;-72
2022/04/01 07:18:29;;;;;;;35.57;6.60;;;20.40;59.80;;;;;;4987301;28;20231;-73
2022/04/01 07:20:59;;;;;;;45.73;6.83;;;20.50;59.90;;;;;;4987683;28;20749;-73
2022/04/01 07:23:28;;;;;;;41.77;6.93;;;20.60;59.40;;;;;;4988176;28;20893;-73
2022/04/01 07:25:56;;;;;;;36.27;6.90;;;20.60;58.80;;;;;;4987512;28;20217;-71
2022/04/01 07:28:25;;;;;;;30.33;6.10;;;20.70;58.40;;;;;;4986391;28;20205;-75
2022/04/01 07:30:54;;;;;;;43.30;8.77;;;20.70;58.30;;;;;;4986120;28;20201;-72
2022/04/01 07:33:22;;;;;;;31.38;6.03;;;20.80;58.30;;;;;;4987524;28;20216;-74
2022/04/01 07:35:51;;;;;;;50.97;7.05;;;20.90;58.10;;;;;;4988008;28;21004;-70
2022/04/01 07:38:21;;;;;;;52.83;7.37;;;20.90;57.70;;;;;;4988345;28;20865;-73
2022/04/01 07:40:49;;;;;;;54.03;8.45;;;21.00;57.50;;;;;;4989102;28;20205;-73
2022/04/01 07:43:17;;;;;;;43.78;6.22;;;21.00;57.10;;;;;;4985199;28;20205;-73
2022/04/01 07:45:47;;;;;;;33.57;8.03;;;21.10;56.80;;;;;;4988794;28;20224;-72
2022/04/01 07:48:15;;;;;;;34.75;8.57;;;21.10;56.30;;;;;;4987607;28;20725;-73
2022/04/01 07:50:44;;;;;;;43.63;6.65;;;21.20;56.70;;;;;;4990093;28;20214;-71
2022/04/01 07:53:12;;;;;;;43.38;6.97;;;21.30;56.10;;;;;;4988619;28;20670;-73
2022/04/01 07:55:43;;;;;;;38.33;7.88;;;21.40;56.30;;;;;;4989057;28;20201;-73
2022/04/01 07:58:11;;;;;;;42.17;6.65;;;21.50;56.50;;;;;;4988903;28;20201;-72
2022/04/01 08:00:53;;;;;;;44.92;6.97;;;21.60;56.40;;;;;;4987010;28;20259;-72
2022/04/01 08:03:21;;;;;;;32.78;6.72;;;21.60;56.00;;;;;;4986414;28;20576;-72
2022/04/01 08:05:50;;;;;;;46.55;8.15;;;21.70;55.40;;;;;;4987477;28;20208;-72
2022/04/01 08:08:19;;;;;;;42.60;8.73;;;21.80;55.00;;;;;;4987861;28;20197;-73
2022/04/01 08:10:48;;;;;;;48.15;7.32;;;21.80;54.80;;;;;;4985941;28;20201;-75
2022/04/01 08:13:17;;;;;;;47.72;10.43;;;21.90;54.60;;;;;;4986405;28;20197;-72
2022/04/01 08:15:46;;;;;;;45.60;9.80;;;22.00;54.80;;;;;;4988866;28;20207;-72
2022/04/01 08:18:21;;;;;;;48.05;10.02;;;22.10;54.80;;;;;;4987859;28;20198;-72
2022/04/01 08:20:50;;;;;;;30.75;8.40;;;22.10;54.70;;;;;;4987132;28;20228;-72
2022/04/01 08:23:19;;;;;;;36.20;7.43;;;22.20;54.80;;;;;;4984661;28;20199;-73
2022/04/01 08:25:49;;;;;;;44.05;7.90;;;22.30;55.10;;;;;;4986406;28;20859;-73
2022/04/01 08:28:17;;;;;;;49.05;8.43;;;22.40;54.60;;;;;;4985928;28;20200;-72
2022/04/01 08:30:45;;;;;;;37.85;8.18;;;22.40;54.30;;;;;;4985500;28;20209;-73
2022/04/01 08:33:17;;;;;;;43.85;7.63;;;22.50;54.20;;;;;;4987788;28;20592;-73
2022/04/01 08:35:45;;;;;;;38.88;6.63;;;22.50;54.20;;;;;;4988340;28;20766;-75
2022/04/01 08:38:14;;;;;;;46.35;7.03;;;22.70;54.80;;;;;;4987447;28;20201;-74
2022/04/01 08:40:43;;;;;;;34.40;7.50;;;22.80;55.30;;;;;;4988135;28;20205;-72
2022/04/01 08:43:13;;;;;;;40.33;7.18;;;22.80;54.70;;;;;;4988980;28;20200;-72
2022/04/01 08:45:42;;;;;;;44.42;7.95;;;22.90;54.20;;;;;;4989816;28;20240;-72
2022/04/01 08:48:11;;;;;;;42.75;6.43;;;22.90;53.80;;;;;;4989169;28;20615;-70
2022/04/01 08:50:42;;;;;;;37.90;6.40;;;23.00;53.60;;;;;;4988575;28;20197;-71
2022/04/01 08:53:11;;;;;;;40.35;8.32;;;23.10;53.60;;;;;;4987078;28;20197;-72
2022/04/01 08:55:40;;;;;;;37.60;6.88;;;23.10;53.00;;;;;;4988392;28;20444;-73
2022/04/01 08:58:09;;;;;;;38.30;7.50;;;23.20;53.00;;;;;;4987730;28;20200;-72
2022/04/01 09:00:40;;;;;;;40.55;8.38;;;23.30;53.30;;;;;;4988182;28;20376;-75
2022/04/01 09:03:10;;;;;;;46.13;8.43;;;23.30;52.90;;;;;;4988392;28;20192;-72
2022/04/01 09:05:44;;;;;;;48.15;9.98;;;23.40;52.10;;;;;;4986956;28;20205;-71
2022/04/01 09:08:15;;;;;;;45.00;13.50;;;23.40;52.20;;;;;;4988359;28;20678;-71
2022/04/01 09:10:53;;;;;;;44.35;7.90;;;23.50;52.00;;;;;;4987832;28;20204;-72
2022/04/01 09:13:23;;;;;;;50.53;9.60;;;23.60;52.10;;;;;;4986260;28;20207;-72
2022/04/01 09:15:53;;;;;;;60.47;11.88;;;23.60;52.00;;;;;;4987070;28;20748;-71
2022/04/01 09:18:42;;;;;;;43.92;7.97;;;23.70;51.30;;;;;;4987830;28;20208;-73
2022/04/01 09:21:13;;;;;;;41.13;7.65;;;23.70;51.00;;;;;;4987315;28;20228;-73
2022/04/01 09:23:47;;;;;;;41.85;9.32;;;23.80;51.40;;;;;;4986854;28;20197;-72
2022/04/01 09:26:21;;;;;;;48.97;10.77;;;23.80;51.40;;;;;;4986464;28;20686;-74
2022/04/01 09:28:52;;;;;;;47.47;8.98;;;23.90;50.50;;;;;;4985706;28;20201;-73
2022/04/01 09:31:32;;;;;;;37.40;8.93;;;24.00;50.50;;;;;;4986934;28;20195;-72
2022/04/01 09:34:09;;;;;;;41.97;8.10;;;24.00;50.90;;;;;;4987663;28;20283;-73
2022/04/01 09:36:41;;;;;;;45.83;8.32;;;24.10;50.20;;;;;;4985476;28;20292;-74
2022/04/01 09:39:12;;;;;;;58.50;10.10;;;24.20;50.30;;;;;;4986104;28;20189;-73
2022/04/01 09:41:43;;;;;;;43.42;7.68;;;24.30;49.60;;;;;;4985999;28;20200;-75
2022/04/01 09:44:29;;;;;;;47.58;8.32;;;24.30;48.90;;;;;;4988486;28;20196;-73
2022/04/01 09:47:03;;;;;;;60.38;11.90;;;24.40;49.40;;;;;;4966744;28;20221;-74
2022/04/01 09:49:35;;;;;;;58.05;8.38;;;24.40;49.30;;;;;;4986301;28;20570;-73
2022/04/01 09:52:07;;;;;;;49.58;9.70;;;24.50;48.50;;;;;;4988655;28;20195;-73
2022/04/01 09:54:46;;;;;;;57.10;13.52;;;24.60;48.40;;;;;;4987664;28;20736;-73
2022/04/01 09:57:15;;;;;;;48.00;10.98;;;24.60;47.80;;;;;;4985709;28;20188;-72
2022/04/01 09:59:45;;;;;;;47.67;9.65;;;24.60;48.00;;;;;;4986545;28;20212;-73
2022/04/01 10:02:15;;;;;;;49.17;8.93;;;24.70;48.40;;;;;;4986318;28;20713;-74
2022/04/01 10:04:43;;;;;;;53.22;9.43;;;24.80;48.90;;;;;;4986724;28;20735;-73
2022/04/01 10:07:12;;;;;;;47.78;8.18;;;24.80;47.90;;;;;;4986071;28;20959;-74
2022/04/01 10:09:43;;;;;;;44.15;8.68;;;24.90;48.00;;;;;;4987395;28;20196;-73
2022/04/01 10:12:34;;;;;;;35.05;6.80;;;25.00;47.80;;;;;;4986307;28;20745;-73
2022/04/01 10:15:06;;;;;;;40.92;8.10;;;25.00;47.80;;;;;;4986734;28;20203;-72
2022/04/01 10:17:57;;;;;;;49.47;8.23;;;25.10;47.80;;;;;;4987151;28;20201;-71
2022/04/01 10:20:31;;;;;;;51.97;7.75;;;25.20;47.10;;;;;;4987001;28;20264;-72
2022/04/01 10:23:03;;;;;;;48.70;7.95;;;25.20;46.70;;;;;;4987385;28;20499;-72
2022/04/01 10:25:43;;;;;;;51.97;7.65;;;25.30;46.70;;;;;;4984306;28;20188;-72
2022/04/01 10:28:12;;;;;;;39.70;7.20;;;25.40;47.00;;;;;;4984756;28;20931;-73
2022/04/01 10:30:51;;;;;;;45.92;7.43;;;25.40;46.60;;;;;;4986273;28;20206;-76
2022/04/01 10:33:24;;;;;;;49.85;7.45;;;25.50;45.70;;;;;;4985967;28;20212;-73
2022/04/01 10:35:55;;;;;;;37.38;8.55;;;25.60;45.70;;;;;;4986499;28;20204;-73
2022/04/01 10:38:28;;;;;;;46.45;7.60;;;25.60;45.70;;;;;;4985680;28;20201;-74
2022/04/01 10:41:08;;;;;;;52.70;8.35;;;25.70;45.50;;;;;;4986379;28;20208;-72
2022/04/01 10:43:41;;;;;;;51.88;8.10;;;25.80;44.60;;;;;;4987323;28;20196;-74
2022/04/01 10:46:12;;;;;;;51.50;8.52;;;25.90;44.60;;;;;;4983394;28;20232;-73
2022/04/01 10:52:06;;;;;;;47.50;7.57;;;26.10;44.20;;;;;;4989891;28;20860;-72
2022/04/01 10:54:44;;;;;;;50.58;7.97;;;26.10;43.40;;;;;;4990007;28;20784;-74
2022/04/01 10:57:15;;;;;;;46.88;7.72;;;26.20;44.10;;;;;;4990043;28;20195;-71
2022/04/01 10:59:44;;;;;;;64.40;9.90;;;26.30;44.60;;;;;;4989732;28;20201;-73
2022/04/01 11:02:15;;;;;;;61.58;8.88;;;26.30;43.20;;;;;;4989755;28;20200;-72
2022/04/01 11:04:47;;;;;;;58.30;8.35;;;26.40;43.50;;;;;;4991244;28;20208;-72
2022/04/01 11:07:33;;;;;;;84.47;13.57;;;26.50;43.30;;;;;;4988925;28;20475;-73
2022/04/01 11:10:25;;;;;;;49.38;9.23;;;26.50;42.80;;;;;;4990299;28;20208;-73
2022/04/01 11:12:56;;;;;;;55.78;8.50;;;26.60;43.40;;;;;;4988351;28;20218;-74
2022/04/01 11:15:29;;;;;;;63.50;9.18;;;26.70;42.60;;;;;;4989635;28;20205;-74
2022/04/01 11:18:03;;;;;;;52.85;7.72;;;26.70;42.10;;;;;;4989607;28;20202;-74
2022/04/01 11:20:35;;;;;;;45.42;7.60;;;26.80;42.30;;;;;;4987072;28;20248;-75
2022/04/01 11:23:14;;;;;;;45.35;6.90;;;26.80;41.80;;;;;;4991113;28;20192;-73
2022/04/01 11:25:50;;;;;;;50.40;7.28;;;26.80;42.80;;;;;;4990771;28;20267;-74
2022/04/01 11:28:18;;;;;;;52.70;8.85;;;26.80;42.20;;;;;;4989548;28;20703;-73
2022/04/01 11:31:08;;;;;;;39.38;7.47;;;26.80;42.10;;;;;;4989920;28;20205;-74
2022/04/01 11:33:37;;;;;;;51.85;6.60;;;26.80;42.20;;;;;;4987927;28;20205;-71
2022/04/01 11:36:07;;;;;;;54.38;9.88;;;26.80;41.30;;;;;;4988621;28;20212;-74
2022/04/01 11:38:38;;;;;;;45.03;8.30;;;26.90;41.30;;;;;;4988598;28;20203;-74
2022/04/01 11:41:06;;;;;;;38.60;9.02;;;26.90;40.90;;;;;;4989709;28;20195;-75
2022/04/01 11:43:35;;;;;;;41.42;8.38;;;27.00;41.30;;;;;;4989500;28;20204;-75
2022/04/01 11:46:07;;;;;;;56.65;7.78;;;27.10;41.10;;;;;;4988762;28;20200;-72
2022/04/01 11:48:37;;;;;;;50.88;7.88;;;27.20;40.50;;;;;;4988046;28;20217;-72
2022/04/01 11:51:09;;;;;;;44.97;7.18;;;27.40;40.20;;;;;;4988189;28;20197;-73
2022/04/01 11:53:41;;;;;;;41.92;7.03;;;27.50;40.10;;;;;;4989152;28;20203;-72
2022/04/01 11:56:11;;;;;;;50.95;10.02;;;27.60;39.70;;;;;;4988003;28;20208;-73
2022/04/01 11:58:53;;;;;;;45.58;7.47;;;27.70;39.80;;;;;;4987594;28;20617;-74
2022/04/01 12:01:23;;;;;;;61.90;9.35;;;27.80;39.90;;;;;;4988750;28;20200;-74
2022/04/01 12:04:01;;;;;;;44.95;6.50;;;28.00;40.00;;;;;;4986444;28;20197;-75
2022/04/01 12:09:17;;;;;;;58.47;7.35;;;28.20;39.70;;;;;;4989203;28;20330;-74
2022/04/01 12:11:57;;;;;;;52.08;7.97;;;28.30;39.80;;;;;;4988939;28;20223;-74
2022/04/01 12:14:26;;;;;;;42.92;7.20;;;28.40;39.20;;;;;;4987276;28;20203;-76
2022/04/01 12:16:56;;;;;;;53.40;8.20;;;28.50;38.40;;;;;;4989079;28;20251;-74
2022/04/01 12:19:26;;;;;;;72.82;8.60;;;28.60;38.10;;;;;;4988061;28;20202;-72
2022/04/01 12:21:59;;;;;;;39.00;7.93;;;28.70;37.50;;;;;;4987035;28;20229;-73
2022/04/01 12:24:28;;;;;;;60.35;7.68;;;28.70;37.80;;;;;;4989344;28;20867;-74
2022/04/01 12:26:59;;;;;;;50.35;7.05;;;28.70;38.10;;;;;;4986631;28;20208;-72
2022/04/01 12:29:29;;;;;;;57.83;7.50;;;28.70;37.50;;;;;;4988460;28;20264;-73
2022/04/01 12:31:59;;;;;;;53.47;8.93;;;28.70;37.00;;;;;;4987528;28;20193;-73
2022/04/01 12:34:29;;;;;;;54.55;8.02;;;28.60;37.20;;;;;;4987081;28;20283;-75
2022/04/01 12:37:04;;;;;;;39.20;7.82;;;28.30;37.20;;;;;;4986134;28;20204;-75
2022/04/01 12:39:35;;;;;;;45.92;8.65;;;28.10;37.70;;;;;;4985060;28;20714;-74
2022/04/01 12:42:09;;;;;;;46.72;7.70;;;27.90;38.70;;;;;;4986923;28;20655;-74
2022/04/01 12:44:40;;;;;;;38.05;7.10;;;27.70;44.50;;;;;;4983218;28;20192;-74
2022/04/01 12:47:09;;;;;;;39.88;6.47;;;27.50;47.30;;;;;;4985824;28;20207;-73
2022/04/01 12:49:41;;;;;;;44.00;6.90;;;27.30;48.60;;;;;;4987842;28;20658;-75
2022/04/01 12:52:17;;;;;;;46.83;7.00;;;27.10;50.00;;;;;;4984887;28;20196;-75
2022/04/01 12:54:50;;;;;;;32.25;6.97;;;26.70;51.60;;;;;;4987540;28;20710;-74
2022/04/01 12:57:20;;;;;;;30.27;6.55;;;26.40;52.90;;;;;;4986897;28;20200;-75
2022/04/01 12:59:50;;;;;;;22.27;5.07;;;26.20;53.60;;;;;;4987120;28;20380;-75
2022/04/01 13:02:20;;;;;;;15.82;3.67;;;25.90;53.90;;;;;;4988097;28;20200;-74
2022/04/01 13:04:50;;;;;;;24.08;4.13;;;25.60;54.90;;;;;;4986748;28;20211;-75
2022/04/01 13:07:22;;;;;;;16.95;3.40;;;25.40;55.10;;;;;;4988092;28;20201;-76
2022/04/01 13:09:53;;;;;;;12.70;3.08;;;25.20;55.00;;;;;;4987459;28;20287;-76